Time;durP1;ratioP1;P1;durP2;ratioP2;P2;SDS_P1;SDS_P2;PMS_P1;PMS_P2;Temp;Humidity;BMP_temperature;BMP_pressure;BME280_temperature;BME280_humidity;BME280_pressure;Samples;Min_cycle;Max_cycle;Signal;HPM_P1;HPM_P2
2021/04/03 05:02:53;;;;;;;;;;;;;;;;;;5086841;27;20443;-50
2021/04/03 05:05:20;;;;;;;1.05;0.63;;;;;;;;;;5088567;28;19957;-51
2021/04/03 05:07:46;;;;;;;0.77;0.38;;;;;;;;;;5076335;28;20025;-52
2021/04/03 05:10:13;;;;;;;5.93;1.00;;;;;;;;;;5082134;28;20020;-52
2021/04/03 05:12:39;;;;;;;0.13;0.13;;;;;;;;;;5085913;28;20091;-54
2021/04/03 05:15:06;;;;;;;3.03;0.32;;;;;;;;;;5082171;28;20021;-52
2021/04/03 05:17:32;;;;;;;1.15;0.57;;;;;;;;;;5087097;28;20461;-52
2021/04/03 05:19:58;;;;;;;2.85;0.57;;;;;;;;;;5085488;28;20115;-51
2021/04/03 05:22:24;;;;;;;0.70;0.68;;;;;;;;;;5078695;28;20029;-54
2021/04/03 05:24:50;;;;;;;1.30;0.88;;;;;;;;;;5078353;28;20067;-51
2021/04/03 05:27:16;;;;;;;0.47;0.47;;;;;;;;;;5086617;28;20043;-52
2021/04/03 05:29:42;;;;;;;1.08;1.08;;;;;;;;;;5086592;28;20451;-50
2021/04/03 05:32:08;;;;;;;0.20;0.20;;;;;;;;;;5087271;28;20044;-49
2021/04/03 05:34:35;;;;;;;1.67;0.63;;;;;;;;;;5085803;28;20279;-59
2021/04/03 05:37:01;;;;;;;1.10;0.63;;;;;;;;;;5086137;28;20512;-54
2021/04/03 05:39:27;;;;;;;3.78;3.50;;;;;;;;;;5081497;28;20025;-51
2021/04/03 05:41:53;;;;;;;0.85;0.85;;;;;;;;;;5086122;28;20528;-53
2021/04/03 05:44:22;;;;;;;7.10;0.60;;;;;;;;;;5070252;28;20032;-52
2021/04/03 05:46:49;;;;;;;0.20;0.20;;;;;;;;;;5074821;28;20029;-52
2021/04/03 05:49:16;;;;;;;0.98;0.82;;;;;;;;;;5081485;28;20075;-54
2021/04/03 05:51:43;;;;;;;6.18;0.70;;;;;;;;;;5083126;28;20060;-55
2021/04/03 05:54:09;;;;;;;0.20;0.20;;;;;;;;;;5084739;28;20024;-55
2021/04/03 05:56:35;;;;;;;0.10;0.10;;;;;;;;;;5085957;28;20023;-56
2021/04/03 05:59:02;;;;;;;0.35;0.32;;;;;;;;;;5085840;28;20016;-58
2021/04/03 06:01:28;;;;;;;0.20;0.20;;;;;;;;;;5082454;28;20040;-61
2021/04/03 06:03:57;;;;;;;0.63;0.63;;;;;;;;;;5059577;28;20031;-58
2021/04/03 06:06:26;;;;;;;0.20;0.20;;;;;;;;;;5069965;28;20055;-55
2021/04/03 06:08:53;;;;;;;1.23;0.90;;;;;;;;;;5070699;28;20025;-53
2021/04/03 06:11:23;;;;;;;0.25;0.25;;;;;;;;;;5072958;28;20047;-53
2021/04/03 06:14:01;;;;;;;0.17;0.17;;;;;;;;;;5069749;28;20031;-55
2021/04/03 06:16:32;;;;;;;0.10;0.10;;;;;;;;;;5071322;28;20039;-56
2021/04/03 06:19:12;;;;;;;1.88;0.93;;;;;;;;;;5069352;28;20402;-55
2021/04/03 06:21:39;;;;;;;6.65;0.70;;;;;;;;;;5068995;28;20517;-51
2021/04/03 06:24:15;;;;;;;0.20;0.20;;;;;;;;;;5069733;28;20027;-56
2021/04/03 06:26:41;;;;;;;0.20;0.20;;;;;;;;;;5072370;28;20033;-52
2021/04/03 06:29:27;;;;;;;0.30;0.30;;;;;;;;;;5070412;28;20035;-49
2021/04/03 06:31:53;;;;;;;;;;;;;;;;;;5072304;28;20044;-51
2021/04/03 06:34:26;;;;;;;0.35;0.25;;;;;;;;;;5069458;28;20003;-52
2021/04/03 06:36:52;;;;;;;0.20;0.20;;;;;;;;;;5069750;28;20478;-57
2021/04/03 06:39:18;;;;;;;0.17;0.17;;;;;;;;;;5069225;28;20028;-50
2021/04/03 06:41:45;;;;;;;7.82;1.50;;;;;;;;;;5070268;28;20074;-53
2021/04/03 06:44:11;;;;;;;0.30;0.30;;;;;;;;;;5072397;28;20036;-53
2021/04/03 06:46:48;;;;;;;0.25;0.25;;;;;;;;;;5069303;28;20040;-53
2021/04/03 06:49:15;;;;;;;1.17;0.77;;;;;;;;;;5068876;28;20036;-51
2021/04/03 06:51:42;;;;;;;0.55;0.55;;;;;;;;;;5071500;28;20036;-56
2021/04/03 06:54:09;;;;;;;0.30;0.30;;;;;;;;;;5069590;28;20441;-54
2021/04/03 06:56:36;;;;;;;6.85;1.23;;;;;;;;;;5071651;28;20028;-49
2021/04/03 06:59:12;;;;;;;0.20;0.20;;;;;;;;;;5070578;28;20103;-49
2021/04/03 07:01:57;;;;;;;0.20;0.20;;;;;;;;;;5069885;28;20466;-53
2021/04/03 07:04:37;;;;;;;3.50;0.65;;;;;;;;;;5068986;28;20078;-59
2021/04/03 07:07:04;;;;;;;0.10;0.10;;;;;;;;;;5068428;28;20111;-53
2021/04/03 07:09:30;;;;;;;1.30;1.00;;;;;;;;;;5069003;28;20036;-55
2021/04/03 07:11:57;;;;;;;0.65;0.30;;;;;;;;;;5067728;28;20047;-50
2021/04/03 07:14:24;;;;;;;0.20;0.20;;;;;;;;;;5071075;28;20074;-52
2021/04/03 07:16:51;;;;;;;6.93;0.95;;;;;;;;;;5068744;28;20041;-50
2021/04/03 07:19:18;;;;;;;1.15;0.40;;;;;;;;;;5069636;28;20074;-51
2021/04/03 07:21:44;;;;;;;0.40;0.40;;;;;;;;;;5069876;28;20043;-50
2021/04/03 07:24:11;;;;;;;0.47;0.47;;;;;;;;;;5068096;28;20441;-52
2021/04/03 07:26:38;;;;;;;1.00;0.57;;;;;;;;;;5068183;28;20024;-51
2021/04/03 07:29:05;;;;;;;0.40;0.40;;;;;;;;;;5065562;28;20036;-55
2021/04/03 07:31:38;;;;;;;3.97;1.67;;;;;;;;;;5067743;28;20032;-49
2021/04/03 07:34:04;;;;;;;0.95;0.95;;;;;;;;;;5068580;28;20024;-50
2021/04/03 07:36:36;;;;;;;1.33;0.35;;;;;;;;;;5074058;28;20401;-52
2021/04/03 07:39:03;;;;;;;0.63;0.57;;;;;;;;;;5066831;28;20037;-48
2021/04/03 07:41:35;;;;;;;0.15;0.15;;;;;;;;;;5071408;28;20025;-50
2021/04/03 07:44:11;;;;;;;0.20;0.20;;;;;;;;;;5070882;28;20016;-52
2021/04/03 07:46:39;;;;;;;3.95;0.68;;;;;;;;;;5067632;28;20037;-54
2021/04/03 07:49:05;;;;;;;4.80;1.38;;;;;;;;;;5068981;28;20076;-53
2021/04/03 07:51:31;;;;;;;0.60;0.60;;;;;;;;;;5068876;28;20028;-50
2021/04/03 07:53:58;;;;;;;2.67;0.95;;;;;;;;;;5069262;28;20550;-53
2021/04/03 07:56:25;;;;;;;9.88;2.17;;;;;;;;;;5071137;28;20085;-50
2021/04/03 07:58:51;;;;;;;1.83;1.58;;;;;;;;;;5069142;28;20042;-52
2021/04/03 08:01:21;;;;;;;3.22;1.98;;;;;;;;;;5067520;28;20181;-49
2021/04/03 08:03:55;;;;;;;0.30;0.30;;;;;;;;;;5067293;28;20401;-52
2021/04/03 08:06:29;;;;;;;0.68;0.60;;;;;;;;;;5067961;28;20039;-50
2021/04/03 08:08:55;;;;;;;2.95;1.13;;;;;;;;;;5051656;28;20021;-51
2021/04/03 08:11:21;;;;;;;0.22;0.22;;;;;;;;;;5071154;28;20470;-54
2021/04/03 08:13:48;;;;;;;0.20;0.20;;;;;;;;;;5068365;28;20024;-53
2021/04/03 08:16:15;;;;;;;1.52;0.60;;;;;;;;;;5065925;28;20043;-54
2021/04/03 08:18:43;;;;;;;0.20;0.20;;;;;;;;;;5067256;28;20105;-53
2021/04/03 08:21:10;;;;;;;2.17;1.65;;;;;;;;;;5067823;28;20021;-50
2021/04/03 08:23:36;;;;;;;23.48;2.38;;;;;;;;;;5069899;28;20032;-52
2021/04/03 08:26:02;;;;;;;0.20;0.20;;;;;;;;;;5068807;28;20047;-55
2021/04/03 08:28:28;;;;;;;1.30;1.10;;;;;;;;;;5067925;28;20063;-53
2021/04/03 08:30:55;;;;;;;0.40;0.40;;;;;;;;;;5067454;28;20498;-58
2021/04/03 08:33:21;;;;;;;14.18;1.00;;;;;;;;;;5067976;28;20063;-52
2021/04/03 08:35:50;;;;;;;3.42;1.60;;;;;;;;;;5069202;28;20031;-55
2021/04/03 08:38:16;;;;;;;1.92;1.05;;;;;;;;;;5068897;28;20028;-54
2021/04/03 08:40:42;;;;;;;2.20;1.27;;;;;;;;;;5067452;28;20029;-55
2021/04/03 08:43:08;;;;;;;3.83;1.42;;;;;;;;;;5067712;28;20024;-55
2021/04/03 08:45:38;;;;;;;1.08;0.93;;;;;;;;;;5067433;28;20108;-57
2021/04/03 08:48:08;;;;;;;0.85;0.50;;;;;;;;;;5068048;28;20044;-55
2021/04/03 08:50:34;;;;;;;0.25;0.25;;;;;;;;;;5069619;28;20404;-58
2021/04/03 08:53:01;;;;;;;3.58;1.02;;;;;;;;;;5073334;28;20037;-57
2021/04/03 08:55:28;;;;;;;0.88;0.88;;;;;;;;;;5067494;28;20029;-55
2021/04/03 08:57:58;;;;;;;0.47;0.47;;;;;;;;;;5069479;28;20027;-57
2021/04/03 09:00:24;;;;;;;0.57;0.57;;;;;;;;;;5067793;28;20040;-52
2021/04/03 09:02:52;;;;;;;3.65;1.40;;;;;;;;;;5068480;28;20041;-52
2021/04/03 09:05:19;;;;;;;1.00;0.65;;;;;;;;;;5063912;28;20062;-57
2021/04/03 09:07:45;;;;;;;3.13;0.63;;;;;;;;;;5064168;28;20033;-54
2021/04/03 09:10:14;;;;;;;1.27;1.13;;;;;;;;;;5068775;28;20476;-57
2021/04/03 09:12:40;;;;;;;5.75;1.52;;;;;;;;;;5066593;28;20028;-55
2021/04/03 09:15:08;;;;;;;2.42;0.82;;;;;;;;;;5057280;28;20028;-54
2021/04/03 09:17:35;;;;;;;5.18;0.73;;;;;;;;;;5067789;28;20035;-55
2021/04/03 09:20:08;;;;;;;4.38;1.38;;;;;;;;;;5069074;28;20028;-54
2021/04/03 09:22:38;;;;;;;1.05;1.05;;;;;;;;;;5063205;28;20028;-54
2021/04/03 09:25:09;;;;;;;1.10;0.90;;;;;;;;;;5066180;28;20113;-57
2021/04/03 09:27:36;;;;;;;2.35;0.40;;;;;;;;;;5068581;28;20061;-54
2021/04/03 09:30:06;;;;;;;3.65;1.42;;;;;;;;;;5068256;28;20056;-57
2021/04/03 09:32:39;;;;;;;7.88;1.48;;;;;;;;;;5068766;28;20043;-59
2021/04/03 09:35:06;;;;;;;0.88;0.50;;;;;;;;;;5068984;28;20085;-53
2021/04/03 09:37:32;;;;;;;12.20;1.80;;;;;;;;;;5062890;28;20095;-56
2021/04/03 09:39:59;;;;;;;2.60;1.65;;;;;;;;;;5072218;28;20032;-54
2021/04/03 09:42:26;;;;;;;1.88;1.77;;;;;;;;;;5075543;28;20024;-54
2021/04/03 09:44:57;;;;;;;0.45;0.45;;;;;;;;;;5072711;28;20048;-55
2021/04/03 09:47:23;;;;;;;6.45;0.98;;;;;;;;;;5084263;28;20029;-55
2021/04/03 09:49:49;;;;;;;1.45;0.68;;;;;;;;;;5071871;28;20026;-52
2021/04/03 09:52:16;;;;;;;0.20;0.20;;;;;;;;;;5072125;28;20101;-55
2021/04/03 09:54:42;;;;;;;6.15;1.63;;;;;;;;;;5071803;28;20598;-54
2021/04/03 09:57:09;;;;;;;1.85;1.75;;;;;;;;;;5071330;28;20022;-54
2021/04/03 09:59:35;;;;;;;1.30;0.80;;;;;;;;;;5067263;28;20104;-53
2021/04/03 10:02:02;;;;;;;1.77;1.10;;;;;;;;;;5067001;28;20890;-55
2021/04/03 10:04:29;;;;;;;0.10;0.10;;;;;;;;;;5070892;28;20028;-55
2021/04/03 10:06:55;;;;;;;10.27;1.25;;;;;;;;;;5068397;28;20013;-53
2021/04/03 10:09:21;;;;;;;2.85;2.20;;;;;;;;;;5085759;28;20551;-56
2021/04/03 10:11:48;;;;;;;4.95;1.05;;;;;;;;;;5071715;28;20097;-55
2021/04/03 10:14:14;;;;;;;2.38;0.98;;;;;;;;;;5059390;28;20083;-54
2021/04/03 10:16:41;;;;;;;10.75;1.45;;;;;;;;;;5063614;28;20059;-52
2021/04/03 10:19:07;;;;;;;0.38;0.38;;;;;;;;;;5060242;28;20027;-54
2021/04/03 10:21:33;;;;;;;0.80;0.77;;;;;;;;;;5061204;28;20482;-54
2021/04/03 10:24:00;;;;;;;10.68;0.57;;;;;;;;;;5057274;28;20048;-53
2021/04/03 10:26:26;;;;;;;5.30;0.98;;;;;;;;;;5076140;28;20025;-52
2021/04/03 10:28:52;;;;;;;3.60;1.98;;;;;;;;;;5070409;28;20504;-52
2021/04/03 10:31:18;;;;;;;1.30;1.05;;;;;;;;;;5069262;28;20032;-54
2021/04/03 10:33:44;;;;;;;2.30;1.58;;;;;;;;;;5069834;28;20025;-51
2021/04/03 10:36:11;;;;;;;0.68;0.65;;;;;;;;;;5069856;28;20025;-54
2021/04/03 10:38:37;;;;;;;0.10;0.10;;;;;;;;;;5072485;28;20025;-52
2021/04/03 10:41:04;;;;;;;5.70;4.15;;;;;;;;;;5070673;28;20489;-53
2021/04/03 10:43:30;;;;;;;0.10;0.10;;;;;;;;;;5069216;28;20474;-55
2021/04/03 10:45:57;;;;;;;2.60;0.60;;;;;;;;;;5070179;28;20425;-54
2021/04/03 10:48:23;;;;;;;0.75;0.43;;;;;;;;;;5070005;28;20417;-53
2021/04/03 10:50:49;;;;;;;0.40;0.40;;;;;;;;;;5071173;28;20036;-55
2021/04/03 10:53:15;;;;;;;0.82;0.50;;;;;;;;;;5072117;28;20036;-52
2021/04/03 10:55:42;;;;;;;2.42;0.32;;;;;;;;;;5069672;28;20082;-54
2021/04/03 10:58:08;;;;;;;6.70;3.42;;;;;;;;;;5072195;28;20020;-54
2021/04/03 11:00:35;;;;;;;0.15;0.15;;;;;;;;;;5075294;28;20021;-53
2021/04/03 11:03:02;;;;;;;0.30;0.30;;;;;;;;;;5070099;28;20500;-55
2021/04/03 11:05:28;;;;;;;0.40;0.40;;;;;;;;;;5071884;28;20486;-60
2021/04/03 11:07:54;;;;;;;0.10;0.10;;;;;;;;;;5070147;28;20028;-53
2021/04/03 11:10:20;;;;;;;1.27;0.95;;;;;;;;;;5068844;28;20067;-54
2021/04/03 11:12:46;;;;;;;0.30;0.30;;;;;;;;;;5069417;28;20029;-55
2021/04/03 11:15:13;;;;;;;1.13;0.30;;;;;;;;;;5069866;28;20029;-53
2021/04/03 11:17:39;;;;;;;15.00;2.10;;;;;;;;;;5071538;28;20035;-54
2021/04/03 11:20:06;;;;;;;3.30;1.45;;;;;;;;;;5069899;28;20032;-58
2021/04/03 11:22:32;;;;;;;11.63;1.17;;;;;;;;;;5068972;28;20028;-52
2021/04/03 11:24:58;;;;;;;1.88;1.48;;;;;;;;;;5068368;28;20059;-54
2021/04/03 11:27:25;;;;;;;0.82;0.77;;;;;;;;;;5072946;28;20150;-54
2021/04/03 11:29:51;;;;;;;1.13;0.35;;;;;;;;;;5067796;28;20451;-53
2021/04/03 11:32:17;;;;;;;3.70;1.55;;;;;;;;;;5067239;28;20062;-55
2021/04/03 11:34:43;;;;;;;2.28;1.55;;;;;;;;;;5070073;28;20028;-55
2021/04/03 11:37:09;;;;;;;0.15;0.15;;;;;;;;;;5068974;28;20037;-54
2021/04/03 11:39:36;;;;;;;0.82;0.82;;;;;;;;;;5068964;28;20036;-54
2021/04/03 11:42:03;;;;;;;0.52;0.52;;;;;;;;;;5068818;28;20518;-54
2021/04/03 11:44:29;;;;;;;4.50;0.88;;;;;;;;;;5070503;28;20029;-53
2021/04/03 11:46:57;;;;;;;1.95;1.42;;;;;;;;;;5071190;28;20036;-52
2021/04/03 11:49:23;;;;;;;6.38;1.85;;;;;;;;;;5070024;28;20028;-52
2021/04/03 11:51:49;;;;;;;0.32;0.22;;;;;;;;;;5068211;28;20070;-52
2021/04/03 11:54:19;;;;;;;1.85;0.98;;;;;;;;;;5066371;28;20032;-53
2021/04/03 11:56:45;;;;;;;3.67;1.13;;;;;;;;;;5069311;28;20032;-55
2021/04/03 11:59:12;;;;;;;1.38;0.88;;;;;;;;;;5067859;28;20555;-52
2021/04/03 12:01:38;;;;;;;7.32;0.75;;;;;;;;;;5067591;28;20049;-52
2021/04/03 12:04:04;;;;;;;0.90;0.90;;;;;;;;;;5068681;28;20025;-53
2021/04/03 12:06:30;;;;;;;1.02;0.68;;;;;;;;;;5067159;28;20020;-55
2021/04/03 12:08:56;;;;;;;10.30;2.92;;;;;;;;;;5068464;28;20035;-51
2021/04/03 12:11:22;;;;;;;10.02;1.75;;;;;;;;;;5071465;28;20502;-54
2021/04/03 12:13:48;;;;;;;7.72;1.20;;;;;;;;;;5066820;28;20478;-53
2021/04/03 12:16:15;;;;;;;0.43;0.40;;;;;;;;;;5067391;28;20032;-53
2021/04/03 12:18:41;;;;;;;1.23;0.52;;;;;;;;;;5073204;28;20035;-54
2021/04/03 12:21:07;;;;;;;6.45;1.52;;;;;;;;;;5067285;28;20086;-54
2021/04/03 12:23:33;;;;;;;0.63;0.50;;;;;;;;;;5069990;28;20505;-55
2021/04/03 12:25:59;;;;;;;0.68;0.68;;;;;;;;;;5068896;28;20043;-53
2021/04/03 12:28:25;;;;;;;5.00;0.75;;;;;;;;;;5067818;28;20028;-54
2021/04/03 12:30:51;;;;;;;1.92;0.60;;;;;;;;;;5067979;28;20040;-53
2021/04/03 12:33:17;;;;;;;1.77;0.95;;;;;;;;;;5067736;28;20033;-54
2021/04/03 12:35:43;;;;;;;0.85;0.75;;;;;;;;;;5069295;28;20086;-54
2021/04/03 12:38:09;;;;;;;10.70;1.83;;;;;;;;;;5068972;28;20056;-54
2021/04/03 12:40:35;;;;;;;1.65;0.85;;;;;;;;;;5067540;28;20040;-54
2021/04/03 12:43:02;;;;;;;0.47;0.35;;;;;;;;;;5067425;28;20029;-57
2021/04/03 12:45:28;;;;;;;4.38;0.80;;;;;;;;;;5067845;28;20027;-55
2021/04/03 12:47:54;;;;;;;3.13;1.25;;;;;;;;;;5073147;28;20104;-55
2021/04/03 12:50:20;;;;;;;10.95;1.00;;;;;;;;;;5070342;28;20034;-53
2021/04/03 12:52:46;;;;;;;0.10;0.10;;;;;;;;;;5067451;28;20029;-52
2021/04/03 12:55:12;;;;;;;0.75;0.70;;;;;;;;;;5067533;28;20036;-52
2021/04/03 12:57:39;;;;;;;11.32;1.30;;;;;;;;;;5066563;28;20035;-53
2021/04/03 13:00:06;;;;;;;2.45;1.50;;;;;;;;;;5068583;28;20035;-55
2021/04/03 13:02:32;;;;;;;0.20;0.20;;;;;;;;;;5067674;28;20120;-55
2021/04/03 13:04:58;;;;;;;2.50;0.63;;;;;;;;;;5067497;28;20035;-52
2021/04/03 13:07:24;;;;;;;2.83;1.35;;;;;;;;;;5066444;28;20753;-51
2021/04/03 13:09:50;;;;;;;10.65;2.72;;;;;;;;;;5069028;28;20490;-53
2021/04/03 13:12:16;;;;;;;7.97;2.25;;;;;;;;;;5068885;28;20082;-53
2021/04/03 13:14:42;;;;;;;7.70;1.77;;;;;;;;;;5073676;28;20039;-56
2021/04/03 13:17:09;;;;;;;2.65;1.02;;;;;;;;;;5074715;28;20040;-53
2021/04/03 13:19:35;;;;;;;27.10;1.45;;;;;;;;;;5070925;28;20048;-53
2021/04/03 13:22:01;;;;;;;5.93;1.58;;;;;;;;;;5070389;28;20033;-52
2021/04/03 13:24:27;;;;;;;0.10;0.10;;;;;;;;;;5071079;28;20021;-51
2021/04/03 13:26:53;;;;;;;1.52;0.32;;;;;;;;;;5071943;28;20036;-54
2021/04/03 13:29:19;;;;;;;2.17;1.05;;;;;;;;;;5074239;28;20126;-55
2021/04/03 13:31:45;;;;;;;0.10;0.10;;;;;;;;;;5072433;28;20048;-55
2021/04/03 13:34:11;;;;;;;19.05;1.17;;;;;;;;;;5071064;28;20470;-55
2021/04/03 13:36:37;;;;;;;9.07;0.73;;;;;;;;;;5070297;28;20044;-53
2021/04/03 13:39:03;;;;;;;0.55;0.43;;;;;;;;;;5071104;28;20107;-56
2021/04/03 13:41:29;;;;;;;5.80;2.08;;;;;;;;;;5074414;28;20437;-55
2021/04/03 13:43:56;;;;;;;7.82;1.92;;;;;;;;;;5073256;28;20119;-57
2021/04/03 13:46:22;;;;;;;14.50;1.85;;;;;;;;;;5070988;28;20494;-52
2021/04/03 13:48:48;;;;;;;1.15;1.05;;;;;;;;;;5070562;28;20020;-61
2021/04/03 13:51:14;;;;;;;6.65;1.85;;;;;;;;;;5070728;28;20059;-54
2021/04/03 13:53:40;;;;;;;8.07;2.08;;;;;;;;;;5073069;28;20027;-58
2021/04/03 13:56:06;;;;;;;3.72;1.38;;;;;;;;;;5064397;28;20090;-54
2021/04/03 13:58:32;;;;;;;0.10;0.10;;;;;;;;;;5067745;28;20528;-53
2021/04/03 14:00:59;;;;;;;12.27;2.92;;;;;;;;;;5072142;28;20044;-54
2021/04/03 14:03:25;;;;;;;0.30;0.30;;;;;;;;;;5070103;28;20025;-54
2021/04/03 14:05:51;;;;;;;0.15;0.15;;;;;;;;;;5072075;28;20037;-52
2021/04/03 14:08:17;;;;;;;0.55;0.55;;;;;;;;;;5071991;28;20021;-54
2021/04/03 14:10:43;;;;;;;3.17;1.60;;;;;;;;;;5071268;28;20086;-55
2021/04/03 14:13:09;;;;;;;0.20;0.20;;;;;;;;;;5070874;28;20113;-55
2021/04/03 14:15:35;;;;;;;5.88;2.53;;;;;;;;;;5070215;28;20623;-52
2021/04/03 14:18:01;;;;;;;16.65;1.77;;;;;;;;;;5069709;28;20017;-57
2021/04/03 14:20:28;;;;;;;0.70;0.28;;;;;;;;;;5073387;28;20025;-54
2021/04/03 14:22:55;;;;;;;1.00;0.88;;;;;;;;;;5071384;28;20025;-58
2021/04/03 14:25:21;;;;;;;9.07;1.13;;;;;;;;;;5071257;28;20497;-56
2021/04/03 14:27:47;;;;;;;0.20;0.20;;;;;;;;;;5069429;28;20024;-58
2021/04/03 14:30:14;;;;;;;4.38;2.33;;;;;;;;;;5063963;28;20028;-53
2021/04/03 14:32:40;;;;;;;3.55;1.30;;;;;;;;;;5066104;28;20043;-55
2021/04/03 14:35:06;;;;;;;3.83;1.00;;;;;;;;;;5073206;28;20028;-51
2021/04/03 14:37:32;;;;;;;4.30;0.93;;;;;;;;;;5069811;28;20028;-55
2021/04/03 14:39:59;;;;;;;2.42;1.15;;;;;;;;;;5071174;28;20032;-55
2021/04/03 14:42:25;;;;;;;4.72;1.38;;;;;;;;;;5069549;28;20494;-53
2021/04/03 14:44:52;;;;;;;1.13;0.55;;;;;;;;;;5069602;28;20125;-52
2021/04/03 14:47:18;;;;;;;7.68;1.65;;;;;;;;;;5070235;28;20475;-55
2021/04/03 14:49:44;;;;;;;0.13;0.13;;;;;;;;;;5071290;28;20430;-54
2021/04/03 14:52:10;;;;;;;0.10;0.10;;;;;;;;;;5069633;28;20552;-54
2021/04/03 14:54:36;;;;;;;0.30;0.30;;;;;;;;;;5066243;28;20032;-54
2021/04/03 14:57:02;;;;;;;2.85;0.57;;;;;;;;;;5070965;28;20577;-57
2021/04/03 14:59:28;;;;;;;10.15;2.35;;;;;;;;;;5071774;28;20070;-56
2021/04/03 15:01:55;;;;;;;7.82;1.55;;;;;;;;;;5068015;28;20044;-56
2021/04/03 15:04:21;;;;;;;11.82;1.23;;;;;;;;;;5064226;28;20452;-55
2021/04/03 15:06:48;;;;;;;0.25;0.25;;;;;;;;;;5066749;28;20784;-55
2021/04/03 15:09:14;;;;;;;16.38;1.75;;;;;;;;;;5067506;28;20051;-60
2021/04/03 15:11:40;;;;;;;0.10;0.10;;;;;;;;;;5066358;28;20082;-58
2021/04/03 15:14:06;;;;;;;6.22;1.35;;;;;;;;;;5068119;28;20039;-57
2021/04/03 15:16:34;;;;;;;7.78;2.25;;;;;;;;;;5067397;28;20155;-55
2021/04/03 15:19:00;;;;;;;0.40;0.40;;;;;;;;;;5065858;28;20032;-57
2021/04/03 15:21:26;;;;;;;0.10;0.10;;;;;;;;;;5068300;28;20413;-54
2021/04/03 15:24:01;;;;;;;0.20;0.20;;;;;;;;;;5068559;28;20530;-55
2021/04/03 15:26:28;;;;;;;0.43;0.43;;;;;;;;;;5068013;28;20020;-56
2021/04/03 15:28:54;;;;;;;8.05;1.33;;;;;;;;;;5065147;28;20040;-57
2021/04/03 15:31:20;;;;;;;0.20;0.20;;;;;;;;;;5056427;28;20499;-54
2021/04/03 15:33:46;;;;;;;6.18;1.40;;;;;;;;;;5063850;28;20029;-52
2021/04/03 15:36:12;;;;;;;3.53;1.38;;;;;;;;;;5062195;28;20501;-53
2021/04/03 15:38:38;;;;;;;0.20;0.20;;;;;;;;;;5069299;28;20627;-52
2021/04/03 15:41:05;;;;;;;0.20;0.20;;;;;;;;;;5066165;28;20033;-53
2021/04/03 15:43:31;;;;;;;11.98;1.55;;;;;;;;;;5063830;28;20016;-55
2021/04/03 15:45:57;;;;;;;1.48;1.33;;;;;;;;;;5064825;28;20028;-53
2021/04/03 15:48:23;;;;;;;0.10;0.10;;;;;;;;;;5066151;28;20449;-54
2021/04/03 15:50:50;;;;;;;3.03;2.08;;;;;;;;;;5067159;28;20111;-54
2021/04/03 15:53:16;;;;;;;7.63;1.33;;;;;;;;;;5069758;28;20028;-52
2021/04/03 15:55:42;;;;;;;0.63;0.30;;;;;;;;;;5060572;28;20028;-52
2021/04/03 15:58:08;;;;;;;7.13;1.85;;;;;;;;;;5066259;28;20020;-55
2021/04/03 16:00:34;;;;;;;1.67;0.85;;;;;;;;;;5062099;28;20029;-56
2021/04/03 16:03:00;;;;;;;14.18;1.45;;;;;;;;;;5067103;28;20021;-53
2021/04/03 16:05:26;;;;;;;2.00;1.25;;;;;;;;;;5067884;28;20598;-54
2021/04/03 16:07:52;;;;;;;0.88;0.30;;;;;;;;;;5064403;28;20023;-53
2021/04/03 16:10:19;;;;;;;0.55;0.55;;;;;;;;;;5065423;28;20489;-51
2021/04/03 16:12:45;;;;;;;12.93;2.58;;;;;;;;;;5067271;28;20440;-54
2021/04/03 16:15:11;;;;;;;10.30;1.83;;;;;;;;;;5068158;28;20020;-52
2021/04/03 16:17:37;;;;;;;10.13;3.20;;;;;;;;;;5065628;28;20058;-54
2021/04/03 16:20:04;;;;;;;8.95;1.13;;;;;;;;;;5070581;28;20086;-51
2021/04/03 16:22:30;;;;;;;7.97;1.10;;;;;;;;;;5066929;28;20121;-53
2021/04/03 16:24:56;;;;;;;8.20;3.53;;;;;;;;;;5064228;28;20041;-52
2021/04/03 16:27:22;;;;;;;7.45;1.23;;;;;;;;;;5074747;28;20474;-52
2021/04/03 16:29:49;;;;;;;3.58;1.35;;;;;;;;;;5053826;28;20132;-50
2021/04/03 16:32:16;;;;;;;0.38;0.38;;;;;;;;;;5068038;28;20071;-52
2021/04/03 16:34:42;;;;;;;7.00;1.23;;;;;;;;;;5059322;28;20048;-53
2021/04/03 16:37:08;;;;;;;0.90;0.80;;;;;;;;;;5063397;28;20025;-50
2021/04/03 16:39:34;;;;;;;0.15;0.15;;;;;;;;;;5067843;28;20035;-55
2021/04/03 16:42:00;;;;;;;0.10;0.10;;;;;;;;;;5066138;28;20036;-52
2021/04/03 16:44:26;;;;;;;6.13;0.85;;;;;;;;;;5072858;28;20031;-52
2021/04/03 16:46:52;;;;;;;1.83;1.70;;;;;;;;;;5069283;28;20155;-55
2021/04/03 16:49:18;;;;;;;0.20;0.20;;;;;;;;;;5066308;28;20769;-56
2021/04/03 16:51:44;;;;;;;0.10;0.10;;;;;;;;;;5066281;28;20048;-54
2021/04/03 16:54:11;;;;;;;0.70;0.70;;;;;;;;;;5067777;28;20021;-56
2021/04/03 16:56:37;;;;;;;0.13;0.13;;;;;;;;;;5070376;28;20634;-53
2021/04/03 16:59:03;;;;;;;1.00;1.00;;;;;;;;;;5067525;28;20028;-54
2021/04/03 17:01:29;;;;;;;0.10;0.10;;;;;;;;;;5069092;28;20084;-55
2021/04/03 17:03:55;;;;;;;8.63;0.85;;;;;;;;;;5068719;28;20414;-54
2021/04/03 17:06:22;;;;;;;0.35;0.35;;;;;;;;;;5069042;28;20115;-56
2021/04/03 17:08:48;;;;;;;1.75;0.80;;;;;;;;;;5069352;28;20043;-53
2021/04/03 17:11:14;;;;;;;0.70;0.45;;;;;;;;;;5066659;28;20064;-52
2021/04/03 17:13:40;;;;;;;0.13;0.13;;;;;;;;;;5067426;28;20458;-53
2021/04/03 17:16:06;;;;;;;1.05;1.05;;;;;;;;;;5067663;28;20024;-51
2021/04/03 17:18:32;;;;;;;0.57;0.57;;;;;;;;;;5069120;28;20486;-48
2021/04/03 17:20:59;;;;;;;4.72;2.20;;;;;;;;;;5066995;28;20031;-49
2021/04/03 17:23:25;;;;;;;0.38;0.38;;;;;;;;;;5071558;28;20418;-50
2021/04/03 17:25:51;;;;;;;0.55;0.38;;;;;;;;;;5071278;28;20028;-52
2021/04/03 17:28:17;;;;;;;1.40;1.30;;;;;;;;;;5069896;28;20018;-54
2021/04/03 17:30:46;;;;;;;0.63;0.63;;;;;;;;;;5077445;28;20030;-54
2021/04/03 17:33:13;;;;;;;0.10;0.10;;;;;;;;;;5067279;28;20024;-56
2021/04/03 17:35:39;;;;;;;4.80;2.10;;;;;;;;;;5069928;28;20025;-54
2021/04/03 17:38:05;;;;;;;0.30;0.30;;;;;;;;;;5068553;28;20028;-58
2021/04/03 17:40:31;;;;;;;6.82;2.05;;;;;;;;;;5067239;28;20501;-51
2021/04/03 17:42:57;;;;;;;0.10;0.10;;;;;;;;;;5067066;28;20028;-54
2021/04/03 17:45:25;;;;;;;0.68;0.47;;;;;;;;;;5067767;28;20074;-51
2021/04/03 17:47:51;;;;;;;0.20;0.20;;;;;;;;;;5068730;28;20044;-54
2021/04/03 17:50:17;;;;;;;0.47;0.20;;;;;;;;;;5069916;28;20522;-55
2021/04/03 17:52:43;;;;;;;0.98;0.98;;;;;;;;;;5067679;28;20036;-53
2021/04/03 17:55:10;;;;;;;0.73;0.73;;;;;;;;;;5067544;28;20393;-52
2021/04/03 17:57:36;;;;;;;14.95;1.67;;;;;;;;;;5067000;28;20032;-56
2021/04/03 18:00:02;;;;;;;1.95;0.50;;;;;;;;;;5070853;28;20031;-53
2021/04/03 18:02:38;;;;;;;1.88;0.85;;;;;;;;;;5071637;28;20047;-54
2021/04/03 18:05:05;;;;;;;2.38;1.02;;;;;;;;;;5070692;28;20020;-54
2021/04/03 18:07:31;;;;;;;0.43;0.43;;;;;;;;;;5070114;28;20032;-50
2021/04/03 18:09:57;;;;;;;8.18;0.75;;;;;;;;;;5068886;28;20409;-55
2021/04/03 18:12:23;;;;;;;0.10;0.10;;;;;;;;;;5068910;28;20119;-55
2021/04/03 18:14:49;;;;;;;1.98;1.15;;;;;;;;;;5069088;28;20078;-57
2021/04/03 18:17:15;;;;;;;2.28;0.60;;;;;;;;;;5069973;28;20028;-56
2021/04/03 18:19:45;;;;;;;11.48;1.10;;;;;;;;;;5068930;28;20036;-55
2021/04/03 18:22:11;;;;;;;5.53;0.73;;;;;;;;;;5069180;28;20032;-56
2021/04/03 18:24:41;;;;;;;0.20;0.20;;;;;;;;;;5068767;28;20032;-54
2021/04/03 18:27:08;;;;;;;1.65;0.73;;;;;;;;;;5069856;28;20107;-54
2021/04/03 18:29:35;;;;;;;2.83;0.77;;;;;;;;;;5070515;28;20059;-52
2021/04/03 18:32:01;;;;;;;0.40;0.38;;;;;;;;;;5068641;28;20040;-57
2021/04/03 18:34:27;;;;;;;0.40;0.40;;;;;;;;;;5069080;28;20024;-52
2021/04/03 18:36:53;;;;;;;0.10;0.10;;;;;;;;;;5067247;28;20028;-55
2021/04/03 18:39:19;;;;;;;1.00;0.75;;;;;;;;;;5067470;28;20029;-55
2021/04/03 18:41:45;;;;;;;0.20;0.20;;;;;;;;;;5064695;28;20033;-53
2021/04/03 18:44:11;;;;;;;0.22;0.22;;;;;;;;;;5067135;28;21452;-55
2021/04/03 18:46:38;;;;;;;3.45;1.58;;;;;;;;;;5064475;28;20032;-50
2021/04/03 18:49:04;;;;;;;6.30;1.75;;;;;;;;;;5064455;28;20025;-57
2021/04/03 18:51:30;;;;;;;0.65;0.52;;;;;;;;;;5064065;28;20383;-54
2021/04/03 18:53:56;;;;;;;2.72;1.48;;;;;;;;;;5068140;28;20074;-56
2021/04/03 18:56:22;;;;;;;3.20;1.30;;;;;;;;;;5063545;28;20730;-55
2021/04/03 18:58:48;;;;;;;0.10;0.10;;;;;;;;;;5064621;28;20043;-53
2021/04/03 19:01:15;;;;;;;4.47;1.48;;;;;;;;;;5065879;28;20048;-56
2021/04/03 19:03:41;;;;;;;0.40;0.40;;;;;;;;;;5063458;28;20048;-53
2021/04/03 19:06:07;;;;;;;0.13;0.13;;;;;;;;;;5066830;28;20471;-55
2021/04/03 19:08:33;;;;;;;0.20;0.20;;;;;;;;;;5068526;28;20070;-56
2021/04/03 19:10:59;;;;;;;0.65;0.65;;;;;;;;;;5066960;28;20504;-54
2021/04/03 19:13:25;;;;;;;1.52;1.40;;;;;;;;;;5068373;28;20444;-54
2021/04/03 19:15:51;;;;;;;1.00;0.15;;;;;;;;;;5067964;28;20158;-56
2021/04/03 19:18:17;;;;;;;0.10;0.10;;;;;;;;;;5068585;28;20098;-54
2021/04/03 19:20:43;;;;;;;1.02;0.50;;;;;;;;;;5061354;28;20474;-56
2021/04/03 19:23:09;;;;;;;6.93;1.65;;;;;;;;;;5067447;28;20029;-55
2021/04/03 19:25:36;;;;;;;3.17;1.08;;;;;;;;;;5068263;28;20651;-53
2021/04/03 19:28:02;;;;;;;0.10;0.10;;;;;;;;;;5067660;28;20028;-54
2021/04/03 19:30:29;;;;;;;7.68;1.08;;;;;;;;;;5068233;28;20025;-52
2021/04/03 19:32:55;;;;;;;7.22;0.47;;;;;;;;;;5062258;28;20028;-56
2021/04/03 19:35:22;;;;;;;3.03;1.65;;;;;;;;;;5063706;28;20099;-56
2021/04/03 19:37:48;;;;;;;0.82;0.82;;;;;;;;;;5062162;28;20020;-56
2021/04/03 19:40:14;;;;;;;0.52;0.52;;;;;;;;;;5068214;28;20020;-58
2021/04/03 19:42:41;;;;;;;2.80;0.68;;;;;;;;;;5067921;28;20552;-53